EGPE

Inverness Airport

Inverness, United Kingdom
METAR EGPE 250820Z 23014KT 9999 FEW030 10/05 Q1000
Observed Flight Rules
Apr-25 @ 08:20 UTC (13 minutes ago) Visual Flight Rules
Wind Visibility Clouds
230° at 14 knots 10,000+ meters
  • Few at 3,000' AGL
Temperatures Readings
Current 10°C / 50°F
Dewpoint 5°C / 41°F
Humidity 71%
Altimeter 29.53" Hg
Pressure 1000 hPa
Elevation 9
METAR EGPE 250820Z 23014KT 9999 FEW030 10/05 Q1000
Observed Flight Rules
Apr-25 @ 08:20 UTC
(13 minutes ago)
VFR
Wind Visibility
230° at 14 knots 10,000+ meters
Clouds
  • Few at 3,000' AGL
Temperature Dewpoint
10°C / 50°F 5°C / 41°F
Humidity Altimeter Pressure
71% 29.53" Hg 1000 hPa